Time;durP1;ratioP1;P1;durP2;ratioP2;P2;SDS_P1;SDS_P2;PMS_P1;PMS_P2;Temp;Humidity;BMP_temperature;BMP_pressure;BME280_temperature;BME280_humidity;BME280_pressure;Samples;Min_cycle;Max_cycle;Signal;HPM_P1;HPM_P2
2020/12/20 00:01:05;;;;;;;;;;;;;;;-1.21;100.00;102010.97;1867351;77;20451;-39
2020/12/20 00:03:33;;;;;;;;;;;;;;;-1.18;100.00;102006.80;1867472;77;20388;-38
2020/12/20 00:06:01;;;;;;;;;;;;;;;-1.18;100.00;102008.94;1867136;77;20174;-37
2020/12/20 00:08:29;;;;;;;;;;;;;;;-1.18;100.00;102006.37;1867219;77;20171;-39
2020/12/20 00:10:57;;;;;;;;;;;;;;;-1.18;100.00;102008.94;1867395;77;20136;-39
2020/12/20 00:13:24;;;;;;;;;;;;;;;-1.20;100.00;102017.00;1867345;77;20166;-38
2020/12/20 00:15:52;;;;;;;;;;;;;;;-1.20;100.00;102014.44;1867331;77;20122;-38
2020/12/20 00:18:20;;;;;;;;;;;;;;;-1.20;100.00;102015.72;1867199;77;20320;-38
2020/12/20 00:20:48;;;;;;;;;;;;;;;-1.19;100.00;102012.34;1867201;77;20122;-40
2020/12/20 00:23:15;;;;;;;;;;;;;;;-1.18;100.00;102008.09;1867118;77;20169;-38
2020/12/20 00:25:43;;;;;;;;;;;;;;;-1.19;100.00;102013.64;1867264;77;20130;-38
2020/12/20 00:28:11;;;;;;;;;;;;;;;-1.16;100.00;102015.46;1867181;77;20234;-38
2020/12/20 00:30:39;;;;;;;;;;;;;;;-1.16;100.00;102018.03;1867458;77;20193;-38
2020/12/20 00:33:06;;;;;;;;;;;;;;;-1.17;100.00;102017.14;1867230;77;20190;-39
2020/12/20 00:35:34;;;;;;;;;;;;;;;-1.18;100.00;102014.52;1867511;77;20138;-38
2020/12/20 00:38:01;;;;;;;;;;;;;;;-1.20;100.00;102020.87;1867375;77;20122;-39
2020/12/20 00:40:29;;;;;;;;;;;;;;;-1.22;100.00;102016.03;1867193;77;20292;-41
2020/12/20 00:42:57;;;;;;;;;;;;;;;-1.22;100.00;102017.32;1867167;77;20241;-38
2020/12/20 00:45:24;;;;;;;;;;;;;;;-1.23;100.00;102015.15;1867435;77;20401;-38
2020/12/20 00:47:52;;;;;;;;;;;;;;;-1.21;100.00;102019.09;1867191;77;20134;-38
2020/12/20 00:50:20;;;;;;;;;;;;;;;-1.19;100.00;102018.78;1867443;77;20178;-37
2020/12/20 00:52:48;;;;;;;;;;;;;;;-1.18;100.00;102014.52;1867426;77;20157;-38
2020/12/20 00:55:16;;;;;;;;;;;;;;;-1.17;100.00;102010.71;1867305;77;20190;-39
2020/12/20 00:57:44;;;;;;;;;;;;;;;-1.15;100.00;102010.80;1867425;77;20122;-38
2020/12/20 01:00:12;;;;;;;;;;;;;;;-1.13;100.00;102007.52;1867283;77;20133;-38
2020/12/20 01:02:39;;;;;;;;;;;;;;;-1.10;100.00;102003.80;1867161;77;20131;-38
2020/12/20 01:05:07;;;;;;;;;;;;;;;-1.08;100.00;102002.20;1867313;77;20336;-38
2020/12/20 01:07:36;;;;;;;;;;;;;;;-1.08;100.00;101999.62;1867144;77;20178;-39
2020/12/20 01:10:04;;;;;;;;;;;;;;;-1.06;100.00;102002.28;1867186;77;20265;-39
2020/12/20 01:12:33;;;;;;;;;;;;;;;-1.06;100.00;102006.14;1867133;75;20221;-38
2020/12/20 01:15:09;;;;;;;;;;;;;;;-1.05;100.00;102007.48;1867424;76;20368;-39
2020/12/20 01:17:38;;;;;;;;;;;;;;;-1.05;100.00;102002.77;1867501;77;20355;-39
2020/12/20 01:20:06;;;;;;;;;;;;;;;-1.04;100.00;102009.25;1867505;76;20282;-38
2020/12/20 01:22:36;;;;;;;;;;;;;;;-1.04;100.00;102005.39;1867155;76;20140;-37
2020/12/20 01:25:05;;;;;;;;;;;;;;;-1.03;100.00;102004.59;1867188;77;20464;-38
2020/12/20 01:27:33;;;;;;;;;;;;;;;-1.02;100.00;102005.08;1867334;75;20123;-38
2020/12/20 01:30:01;;;;;;;;;;;;;;;-1.00;100.00;102006.45;1867394;77;20411;-39
2020/12/20 01:32:29;;;;;;;;;;;;;;;-1.02;100.00;102004.19;1867201;77;20166;-38
2020/12/20 01:34:58;;;;;;;;;;;;;;;-1.03;100.00;102011.02;1865981;77;20194;-37
2020/12/20 01:37:26;;;;;;;;;;;;;;;-1.04;100.00;102010.53;1867192;77;20135;-38
2020/12/20 01:39:54;;;;;;;;;;;;;;;-1.03;100.00;102015.28;1867369;77;20158;-38
2020/12/20 01:42:22;;;;;;;;;;;;;;;-1.04;100.00;102016.97;1867092;77;20120;-39
2020/12/20 01:44:52;;;;;;;;;;;;;;;-1.03;100.00;102015.28;1874146;76;20136;-38
2020/12/20 01:47:21;;;;;;;;;;;;;;;-1.01;100.00;102013.69;1867040;77;20144;-39
2020/12/20 01:49:51;;;;;;;;;;;;;;;-1.00;100.00;102016.74;1872110;76;20223;-39
2020/12/20 01:52:19;;;;;;;;;;;;;;;-0.98;100.00;102021.14;1867196;77;20184;-38
2020/12/20 01:54:50;;;;;;;;;;;;;;;-0.98;100.00;102016.39;1867210;77;20223;-37
2020/12/20 01:57:20;;;;;;;;;;;;;;;-1.00;100.00;102015.45;1867532;76;20157;-39
2020/12/20 01:59:52;;;;;;;;;;;;;;;-1.00;100.00;102014.17;1867676;76;20398;-38
2020/12/20 02:02:20;;;;;;;;;;;;;;;-1.00;100.00;102010.31;1867285;77;20231;-39
2020/12/20 02:04:50;;;;;;;;;;;;;;;-1.00;100.00;102012.88;1867384;77;20180;-38
2020/12/20 02:07:18;;;;;;;;;;;;;;;-0.99;100.00;102010.39;1867326;77;20192;-39
2020/12/20 02:09:48;;;;;;;;;;;;;;;-0.97;100.00;102013.91;1867253;77;20223;-37
2020/12/20 02:12:17;;;;;;;;;;;;;;;-0.97;100.00;102015.59;1867033;77;20121;-38
2020/12/20 02:14:47;;;;;;;;;;;;;;;-0.98;100.00;102012.53;1866491;76;20231;-40
2020/12/20 02:17:14;;;;;;;;;;;;;;;-0.97;100.00;102007.88;1867000;77;20274;-38
2020/12/20 02:19:42;;;;;;;;;;;;;;;-0.98;100.00;102017.68;1867196;77;20378;-39
2020/12/20 02:22:28;;;;;;;;;;;;;;;-1.01;100.00;102015.86;1867084;77;20137;-38
2020/12/20 02:26:50;;;;;;;;;;;;;;;-0.96;100.00;102010.93;1916840;74;20510;-38
2020/12/20 02:29:18;;;;;;;;;;;;;;;-1.01;100.00;102017.14;1890155;75;20444;-39
2020/12/20 02:31:46;;;;;;;;;;;;;;;-1.01;100.00;102016.25;1903120;75;20160;-38
2020/12/20 02:34:14;;;;;;;;;;;;;;;-1.04;100.00;102024.69;1903225;75;20441;-38
2020/12/20 02:36:45;;;;;;;;;;;;;;;-1.03;100.00;102023.89;1903341;75;20124;-39
2020/12/20 02:39:15;;;;;;;;;;;;;;;-1.02;100.00;102026.06;1903011;75;20221;-38
2020/12/20 02:41:47;;;;;;;;;;;;;;;-1.04;100.00;102024.69;1902197;75;20139;-39
2020/12/20 02:44:15;;;;;;;;;;;;;;;-1.01;100.00;102023.98;1902927;75;20191;-37
2020/12/20 02:46:46;;;;;;;;;;;;;;;-1.00;100.00;102025.35;1903385;75;20381;-38
2020/12/20 02:49:16;;;;;;;;;;;;;;;-0.99;100.00;102025.84;1901495;75;20176;-37
2020/12/20 02:51:45;;;;;;;;;;;;;;;-0.99;100.00;102022.38;1903426;75;20195;-38
2020/12/20 02:54:13;;;;;;;;;;;;;;;-0.98;100.00;102021.54;1903157;75;20132;-38
2020/12/20 02:56:45;;;;;;;;;;;;;;;-0.97;100.00;102025.89;1903039;75;20187;-39
2020/12/20 02:59:15;;;;;;;;;;;;;;;-0.96;100.00;102019.94;1801173;78;20493;-39
2020/12/20 03:01:43;;;;;;;;;;;;;;;-0.97;100.00;102023.31;1846026;77;20135;-38
2020/12/20 03:04:12;;;;;;;;;;;;;;;-0.99;100.00;102019.40;1846980;78;20143;-37
2020/12/20 03:06:41;;;;;;;;;;;;;;;-0.99;100.00;102018.52;1825615;78;20129;-38
2020/12/20 03:09:09;;;;;;;;;;;;;;;-0.99;100.00;102031.38;1772385;80;20389;-38
2020/12/20 03:11:38;;;;;;;;;;;;;;;-0.99;100.00;102025.84;1803642;80;20266;-38
2020/12/20 03:14:07;;;;;;;;;;;;;;;-1.01;100.00;102023.98;1803642;79;20138;-40
2020/12/20 03:16:37;;;;;;;;;;;;;;;-1.01;100.00;102032.58;1803355;80;20143;-39
2020/12/20 03:19:06;;;;;;;;;;;;;;;-1.03;100.00;102027.75;1817473;79;20197;-38
2020/12/20 03:21:33;;;;;;;;;;;;;;;-1.02;100.00;102033.78;1821025;79;20481;-38
2020/12/20 03:24:19;;;;;;;;;;;;;;;-1.02;100.00;102037.64;1821076;79;20153;-38
2020/12/20 03:26:53;;;;;;;;;;;;;;;-1.03;100.00;102034.19;1816112;79;20137;-39
2020/12/20 03:29:23;;;;;;;;;;;;;;;-1.03;100.00;102041.91;1795678;79;20418;-38
2020/12/20 03:32:09;;;;;;;;;;;;;;;-1.02;100.00;102037.64;1821172;79;20228;-40
2020/12/20 03:34:41;;;;;;;;;;;;;;;-1.01;100.00;102047.14;1820756;79;20378;-39
2020/12/20 03:37:10;;;;;;;;;;;;;;;-1.01;100.00;102039.02;1819960;79;20161;-37
2020/12/20 03:39:40;;;;;;;;;;;;;;;-1.01;100.00;102043.28;1819325;79;20276;-39
2020/12/20 03:42:09;;;;;;;;;;;;;;;-1.03;100.00;102039.33;1820785;79;20149;-39
2020/12/20 03:44:37;;;;;;;;;;;;;;;-1.03;100.00;102039.73;1789135;79;20161;-38
2020/12/20 03:47:04;;;;;;;;;;;;;;;-1.03;100.00;102050.03;1789909;79;20845;-39
2020/12/20 03:49:32;;;;;;;;;;;;;;;-1.03;100.00;102047.45;1820433;79;20146;-39
2020/12/20 03:52:01;;;;;;;;;;;;;;;-1.03;100.00;102042.31;1820448;79;20177;-38
2020/12/20 03:54:30;;;;;;;;;;;;;;;-1.02;100.00;102053.09;1828184;78;20525;-40
2020/12/20 03:56:58;;;;;;;;;;;;;;;-1.03;100.00;102047.45;1836850;78;20240;-39
2020/12/20 03:59:26;;;;;;;;;;;;;;;-1.05;100.00;102048.66;1836756;78;20124;-40
2020/12/20 04:01:54;;;;;;;;;;;;;;;-1.04;100.00;102046.56;1802326;78;20236;-39
2020/12/20 04:04:21;;;;;;;;;;;;;;;-1.03;100.00;102049.63;1836761;78;20223;-38
2020/12/20 04:06:49;;;;;;;;;;;;;;;-1.00;100.00;102055.34;1836760;78;20429;-38
2020/12/20 04:09:18;;;;;;;;;;;;;;;-1.01;100.00;102057.03;1836565;78;20168;-39
2020/12/20 04:11:48;;;;;;;;;;;;;;;-1.03;100.00;102064.19;1827099;78;20136;-40
2020/12/20 04:14:16;;;;;;;;;;;;;;;-1.05;100.00;102067.10;1836739;78;20414;-38
2020/12/20 04:16:44;;;;;;;;;;;;;;;-1.06;100.00;102073.05;1826873;78;20218;-38
2020/12/20 04:19:12;;;;;;;;;;;;;;;-1.07;100.00;102077.31;1804000;79;20155;-38
2020/12/20 04:21:42;;;;;;;;;;;;;;;-1.07;100.00;102075.13;1803429;80;20143;-40
2020/12/20 04:24:12;;;;;;;;;;;;;;;-1.08;100.00;102071.67;1802726;80;20200;-38
2020/12/20 04:26:41;;;;;;;;;;;;;;;-1.09;100.00;102080.19;1804028;79;20184;-39
2020/12/20 04:29:13;;;;;;;;;;;;;;;-1.07;100.00;102074.73;1803587;79;20465;-38
2020/12/20 04:31:43;;;;;;;;;;;;;;;-1.08;100.00;102077.22;1803851;79;20172;-38
2020/12/20 04:34:12;;;;;;;;;;;;;;;-1.07;100.00;102077.70;1804163;80;20193;-39
2020/12/20 04:36:39;;;;;;;;;;;;;;;-1.07;100.00;102078.59;1827640;78;20271;-39
2020/12/20 04:39:25;;;;;;;;;;;;;;;-1.07;100.00;102088.89;1813065;78;20133;-39
2020/12/20 04:41:55;;;;;;;;;;;;;;;-1.05;100.00;102092.41;1804066;80;20174;-38
2020/12/20 04:44:24;;;;;;;;;;;;;;;-1.05;100.00;102086.41;1804019;79;20186;-41
2020/12/20 04:46:53;;;;;;;;;;;;;;;-1.05;100.00;102088.54;1803287;80;20142;-37
2020/12/20 04:49:23;;;;;;;;;;;;;;;-1.03;100.00;102093.78;1823221;77;20172;-39
2020/12/20 04:51:57;;;;;;;;;;;;;;;-1.02;100.00;102092.98;1829230;78;20213;-38
2020/12/20 04:54:26;;;;;;;;;;;;;;;-1.01;100.00;102097.33;1818543;78;20380;-39
2020/12/20 04:56:54;;;;;;;;;;;;;;;-1.00;100.00;102097.81;1857022;77;20158;-39
2020/12/20 04:59:27;;;;;;;;;;;;;;;-1.01;100.00;102099.91;1801904;79;20211;-41
2020/12/20 05:01:56;;;;;;;;;;;;;;;-1.00;100.00;102104.25;1796646;79;20161;-38
2020/12/20 05:04:24;;;;;;;;;;;;;;;-0.98;100.00;102106.48;1810348;78;20227;-38
2020/12/20 05:06:53;;;;;;;;;;;;;;;-0.98;100.00;102111.23;1819736;78;20216;-38
2020/12/20 05:09:23;;;;;;;;;;;;;;;-0.97;100.00;102105.67;1819774;78;20166;-38
2020/12/20 05:11:54;;;;;;;;;;;;;;;-0.98;100.00;102109.94;1786204;78;20148;-40
2020/12/20 05:14:32;;;;;;;;;;;;;;;-0.99;100.00;102106.91;1809982;78;20243;-39
2020/12/20 05:17:01;;;;;;;;;;;;;;;-0.98;100.00;102110.34;1796083;80;20160;-40
2020/12/20 05:19:31;;;;;;;;;;;;;;;-0.97;100.00;102113.40;1801528;78;20213;-41
2020/12/20 05:22:16;;;;;;;;;;;;;;;-0.96;100.00;102117.34;1810399;78;20152;-41
2020/12/20 05:24:47;;;;;;;;;;;;;;;-0.97;100.00;102121.12;1809250;78;20135;-38
2020/12/20 05:27:28;;;;;;;;;;;;;;;-0.99;100.00;102122.75;1805691;78;20176;-40
2020/12/20 05:30:14;;;;;;;;;;;;;;;-0.98;100.00;102125.78;1812045;78;20151;-39
2020/12/20 05:33:00;;;;;;;;;;;;;;;-1.00;100.00;102125.73;1804013;80;20183;-40
2020/12/20 05:35:29;;;;;;;;;;;;;;;-0.99;100.00;102132.65;1803925;78;20178;-38
2020/12/20 05:37:57;;;;;;;;;;;;;;;-0.99;100.00;102133.94;1806120;78;20167;-40
2020/12/20 05:40:28;;;;;;;;;;;;;;;-0.99;100.00;102134.33;1805693;78;20233;-39
2020/12/20 05:42:59;;;;;;;;;;;;;;;-0.99;100.00;102133.94;1803779;80;20230;-37
2020/12/20 05:45:32;;;;;;;;;;;;;;;-0.97;100.00;102137.45;1805972;78;20293;-39
2020/12/20 05:48:18;;;;;;;;;;;;;;;-0.95;100.00;102138.83;1803434;80;20226;-39
2020/12/20 05:50:59;;;;;;;;;;;;;;;-0.95;100.00;102136.25;1803830;79;20375;-40
2020/12/20 05:53:29;;;;;;;;;;;;;;;-0.95;100.00;102141.00;1797319;79;20217;-39
2020/12/20 05:55:57;;;;;;;;;;;;;;;-0.94;100.00;102140.20;1807960;78;20202;-40
2020/12/20 05:58:28;;;;;;;;;;;;;;;-0.93;100.00;102138.52;1807111;78;20269;-39
2020/12/20 06:00:57;;;;;;;;;;;;;;;-0.92;100.00;102139.00;1819147;78;20231;-38
2020/12/20 06:03:24;;;;;;;;;;;;;;;-0.90;100.00;102139.95;1805497;78;20170;-39
2020/12/20 06:05:53;;;;;;;;;;;;;;;-0.87;100.00;102150.02;1810927;78;20231;-40
2020/12/20 06:08:22;;;;;;;;;;;;;;;-0.85;100.00;102143.64;1819321;78;20230;-39
2020/12/20 06:10:51;;;;;;;;;;;;;;;-0.84;100.00;102147.98;1805533;78;20209;-38
2020/12/20 06:13:22;;;;;;;;;;;;;;;-0.82;100.00;102148.56;1802875;80;20192;-38
2020/12/20 06:15:55;;;;;;;;;;;;;;;-0.82;100.00;102148.97;1830765;78;20236;-41
2020/12/20 06:18:26;;;;;;;;;;;;;;;-0.82;100.00;102151.53;1807809;78;20166;-40
2020/12/20 06:21:21;;;;;;;;;;;;;;;-0.76;100.00;102154.43;1850151;76;20159;-40
2020/12/20 06:26:52;;;;;;;;;;;;;;;-0.71;100.00;102161.09;1899034;74;20450;-38
2020/12/20 06:29:19;;;;;;;;;;;;;;;-0.75;100.00;102163.93;1819284;77;20292;-39
2020/12/20 06:31:47;;;;;;;;;;;;;;;-0.76;100.00;102163.44;1868182;75;20192;-37
2020/12/20 06:34:14;;;;;;;;;;;;;;;-0.77;100.00;102168.10;1858585;75;20455;-41
2020/12/20 06:36:44;;;;;;;;;;;;;;;-0.78;100.00;102165.44;1881063;75;20185;-38
2020/12/20 06:39:16;;;;;;;;;;;;;;;-0.76;100.00;102166.42;1860692;75;20247;-38
2020/12/20 06:41:41;;;;;;;;;;;;;;;-0.75;100.00;102169.48;1867738;75;20194;-39
2020/12/20 06:44:13;;;;;;;;;;;;;;;-0.73;100.00;102167.88;1880584;75;20184;-40
2020/12/20 06:46:42;;;;;;;;;;;;;;;-0.71;100.00;102165.84;1886415;75;20209;-37
2020/12/20 06:49:35;;;;;;;;;;;;;;;-0.71;100.00;102159.41;1868937;75;20209;-38
2020/12/20 06:52:24;;;;;;;;;;;;;;;-0.71;100.00;102167.13;1872047;75;20464;-41
2020/12/20 06:55:12;;;;;;;;;;;;;;;-0.71;100.00;102160.70;1866672;77;20173;-40
2020/12/20 06:58:00;;;;;;;;;;;;;;;-0.71;100.00;102161.98;1872526;75;20522;-37
2020/12/20 07:00:40;;;;;;;;;;;;;;;-0.72;100.00;102156.78;1885068;75;20120;-39
2020/12/20 07:03:09;;;;;;;;;;;;;;;-0.71;100.00;102159.41;1860812;75;20407;-39
2020/12/20 07:05:39;;;;;;;;;;;;;;;-0.70;100.00;102160.30;1868212;75;20459;-38
2020/12/20 07:08:15;;;;;;;;;;;;;;;-0.71;100.00;102161.09;1868191;75;20275;-38
2020/12/20 07:10:54;;;;;;;;;;;;;;;-0.73;100.00;102161.05;1888835;75;20854;-39
2020/12/20 07:13:39;;;;;;;;;;;;;;;-0.75;100.00;102160.06;1878580;75;20473;-38
2020/12/20 07:16:11;;;;;;;;;;;;;;;-0.76;100.00;102160.86;1808573;78;20184;-39
2020/12/20 07:18:57;;;;;;;;;;;;;;;-0.73;100.00;102171.74;1809167;78;20452;-39
2020/12/20 07:21:31;;;;;;;;;;;;;;;-0.74;100.00;102170.86;1836137;77;20464;-39
2020/12/20 07:24:19;;;;;;;;;;;;;;;-0.72;100.00;102173.09;1834312;77;20160;-39
2020/12/20 07:26:47;;;;;;;;;;;;;;;-0.72;100.00;102170.95;1839808;77;20164;-40
2020/12/20 07:29:16;;;;;;;;;;;;;;;-0.73;100.00;102172.63;1831035;77;20231;-39
2020/12/20 07:31:45;;;;;;;;;;;;;;;-0.73;100.00;102173.92;1810198;77;20203;-39
2020/12/20 07:34:12;;;;;;;;;;;;;;;-0.72;100.00;102167.94;1820464;78;20167;-39
2020/12/20 07:36:40;;;;;;;;;;;;;;;-0.68;100.00;102163.45;1810859;78;20512;-39
2020/12/20 07:39:07;;;;;;;;;;;;;;;-0.63;100.00;102166.25;1807736;78;20179;-41
2020/12/20 07:41:35;;;;;;;;;;;;;;;-0.57;100.00;102160.13;1819045;78;20469;-38
2020/12/20 07:44:05;;;;;;;;;;;;;;;-0.46;100.00;102159.86;1815427;78;20293;-38
2020/12/20 07:46:33;;;;;;;;;;;;;;;-0.33;100.00;102159.23;1815374;78;20207;-41
2020/12/20 07:49:10;;;;;;;;;;;;;;;-0.20;100.00;102156.45;1819032;78;20818;-41
2020/12/20 07:51:37;;;;;;;;;;;;;;;-0.11;100.00;102160.77;1796290;78;20125;-38
2020/12/20 07:54:10;;;;;;;;;;;;;;;-0.09;100.00;102163.02;1823981;78;20202;-37
2020/12/20 07:56:41;;;;;;;;;;;;;;;-0.15;100.00;102166.59;1821229;78;20483;-39
2020/12/20 07:59:11;;;;;;;;;;;;;;;-0.18;100.00;102158.28;1810223;78;20176;-38
2020/12/20 08:01:40;;;;;;;;;;;;;;;-0.22;100.00;102161.93;1834261;77;20184;-39
2020/12/20 08:04:09;;;;;;;;;;;;;;;-0.22;100.00;102167.09;1844227;77;20204;-40
2020/12/20 08:06:43;;;;;;;;;;;;;;;-0.18;100.00;102169.88;1833421;77;20160;-40
2020/12/20 08:09:17;;;;;;;;;;;;;;;-0.17;100.00;102161.75;1833948;77;20190;-41
2020/12/20 08:11:46;;;;;;;;;;;;;;;-0.22;100.00;102161.93;1835270;77;20177;-42
2020/12/20 08:14:17;;;;;;;;;;;;;;;-0.24;100.00;102157.98;1832383;77;20227;-40
2020/12/20 08:16:47;;;;;;;;;;;;;;;-0.22;100.00;102160.23;1836267;76;20186;-40
2020/12/20 08:19:17;;;;;;;;;;;;;;;-0.26;100.00;102157.44;1835897;76;20192;-38
2020/12/20 08:21:55;;;;;;;;;;;;;;;-0.28;100.00;102155.18;1834780;77;20320;-39
2020/12/20 08:24:25;;;;;;;;;;;;;;;-0.30;100.00;102156.78;1827651;77;20135;-43
2020/12/20 08:26:53;;;;;;;;;;;;;;;-0.32;100.00;102153.23;1826975;77;20123;-40
2020/12/20 08:29:21;;;;;;;;;;;;;;;-0.33;100.00;102153.67;1794211;79;20263;-41
2020/12/20 08:31:51;;;;;;;;;;;;;;;-0.33;100.00;102150.21;1797391;79;20135;-36
2020/12/20 08:34:23;;;;;;;;;;;;;;;-0.33;100.00;102151.09;1831272;77;20387;-38
2020/12/20 08:36:53;;;;;;;;;;;;;;;-0.30;100.00;102151.63;1829819;77;20161;-37
2020/12/20 08:39:24;;;;;;;;;;;;;;;-0.30;100.00;102148.66;1834165;77;20310;-38
2020/12/20 08:42:05;;;;;;;;;;;;;;;-0.31;100.00;102145.59;1832858;77;20223;-35
2020/12/20 08:44:33;;;;;;;;;;;;;;;-0.30;100.00;102137.46;1836331;77;20215;-37
2020/12/20 08:47:16;;;;;;;;;;;;;;;-0.31;100.00;102145.99;1792657;77;20213;-40
2020/12/20 08:49:55;;;;;;;;;;;;;;;-0.31;100.00;102143.02;1830129;77;20196;-40
2020/12/20 08:52:26;;;;;;;;;;;;;;;-0.26;100.00;102149.72;1834727;77;20194;-41
2020/12/20 08:54:55;;;;;;;;;;;;;;;-0.22;100.00;102141.31;1822400;78;20283;-40
2020/12/20 08:57:29;;;;;;;;;;;;;;;-0.18;100.00;102140.64;1830651;77;20199;-39
2020/12/20 09:00:11;;;;;;;;;;;;;;;-0.15;100.00;102142.98;1833230;77;20485;-39
2020/12/20 09:02:39;;;;;;;;;;;;;;;-0.13;100.00;102142.64;1833640;77;20138;-42
2020/12/20 09:05:14;;;;;;;;;;;;;;;-0.13;100.00;102146.50;1835556;77;20217;-41
2020/12/20 09:07:44;;;;;;;;;;;;;;;-0.09;100.00;102139.42;1832080;77;20542;-42
2020/12/20 09:10:24;;;;;;;;;;;;;;;-0.04;100.00;102135.77;1807043;78;20200;-42
2020/12/20 09:12:57;;;;;;;;;;;;;;;-0.03;100.00;102141.41;1799500;78;20171;-45
2020/12/20 09:15:32;;;;;;;;;;;;;;;-0.04;100.00;102144.80;1812720;77;20153;-38
2020/12/20 09:18:01;;;;;;;;;;;;;;;-0.05;100.00;102144.31;1803122;78;20196;-39
2020/12/20 09:20:29;;;;;;;;;;;;;;;-0.05;100.00;102141.33;1826690;78;20403;-40
2020/12/20 09:22:58;;;;;;;;;;;;;;;-0.06;100.00;102139.55;1814549;78;20293;-41
2020/12/20 09:25:41;;;;;;;;;;;;;;;-0.05;100.00;102132.30;1776252;78;20299;-40
2020/12/20 09:28:11;;;;;;;;;;;;;;;-0.02;100.00;102128.61;1810470;77;20520;-40
2020/12/20 09:30:50;;;;;;;;;;;;;;;0.00;100.00;102131.27;1813824;78;20212;-39
2020/12/20 09:33:32;;;;;;;;;;;;;;;0.00;100.00;102126.97;1829031;77;20268;-37
2020/12/20 09:36:08;;;;;;;;;;;;;;;0.00;100.00;102128.69;1831393;77;20671;-40
2020/12/20 09:38:46;;;;;;;;;;;;;;;0.05;100.00;102129.79;1811270;77;20795;-42
2020/12/20 09:41:16;;;;;;;;;;;;;;;0.05;100.00;102131.08;1833139;77;20466;-40
2020/12/20 09:43:44;;;;;;;;;;;;;;;0.08;100.00;102124.77;1835248;77;20231;-42
2020/12/20 09:46:22;;;;;;;;;;;;;;;0.09;100.00;102125.65;1835091;77;20184;-41
2020/12/20 09:48:50;;;;;;;;;;;;;;;0.04;100.00;102123.27;1834128;77;20184;-39
2020/12/20 09:51:18;;;;;;;;;;;;;;;-0.03;100.00;102123.37;1836303;77;20190;-41
2020/12/20 09:53:49;;;;;;;;;;;;;;;-0.01;100.00;102125.63;1834125;77;20209;-38
2020/12/20 09:56:23;;;;;;;;;;;;;;;0.03;100.00;102121.48;1835194;77;20193;-42
2020/12/20 09:58:52;;;;;;;;;;;;;;;0.07;100.00;102123.39;1828800;77;20522;-39
2020/12/20 10:01:22;;;;;;;;;;;;;;;0.07;100.00;102120.81;1833780;77;20188;-39
2020/12/20 10:03:50;;;;;;;;;;;;;;;0.05;100.00;102123.34;1828512;77;20166;-41
2020/12/20 10:06:18;;;;;;;;;;;;;;;0.04;100.00;102116.81;1830620;77;20184;-40
2020/12/20 10:08:46;;;;;;;;;;;;;;;0.02;100.00;102114.16;1830421;77;20287;-40
2020/12/20 10:11:17;;;;;;;;;;;;;;;-0.01;100.00;102119.19;1832319;77;20182;-40
2020/12/20 10:13:46;;;;;;;;;;;;;;;0.01;100.00;102121.41;1836826;77;20218;-42
2020/12/20 10:16:18;;;;;;;;;;;;;;;0.04;100.00;102116.41;1835770;77;20209;-40
2020/12/20 10:18:46;;;;;;;;;;;;;;;0.08;100.00;102111.87;1812014;77;20574;-41
2020/12/20 10:21:16;;;;;;;;;;;;;;;0.16;100.00;102114.42;1830272;77;20220;-42
2020/12/20 10:26:51;;;;;;;;;;;;;;;0.32;100.00;102111.78;1887496;74;20185;-40
2020/12/20 10:29:18;;;;;;;;;;;;;;;0.26;100.00;102106.73;1882880;74;20212;-37
2020/12/20 10:31:47;;;;;;;;;;;;;;;0.27;100.00;102104.20;1876887;74;20197;-42
2020/12/20 10:34:16;;;;;;;;;;;;;;;0.29;100.00;102107.75;1851400;74;20201;-40
2020/12/20 10:36:45;;;;;;;;;;;;;;;0.26;100.00;102105.45;1850924;74;20230;-39
2020/12/20 10:39:14;;;;;;;;;;;;;;;0.21;100.00;102105.20;1845023;74;20203;-43
2020/12/20 10:41:43;;;;;;;;;;;;;;;0.22;100.00;102105.69;1881858;74;20971;-41
2020/12/20 10:44:11;;;;;;;;;;;;;;;0.23;100.00;102105.28;1818440;75;20188;-39
2020/12/20 10:46:39;;;;;;;;;;;;;;;0.26;100.00;102100.28;1879177;74;20219;-39
2020/12/20 10:49:07;;;;;;;;;;;;;;;0.27;100.00;102100.33;1885260;74;20645;-39
2020/12/20 10:51:35;;;;;;;;;;;;;;;0.27;100.00;102099.45;1878496;74;20179;-40
2020/12/20 10:54:03;;;;;;;;;;;;;;;0.23;100.00;102103.59;1874574;75;20555;-40
2020/12/20 10:56:31;;;;;;;;;;;;;;;0.21;100.00;102105.20;1880440;74;20319;-38
2020/12/20 10:58:59;;;;;;;;;;;;;;;0.20;100.00;102101.25;1901531;74;20148;-40
2020/12/20 11:01:27;;;;;;;;;;;;;;;0.22;100.00;102102.22;1876284;74;20188;-41
2020/12/20 11:03:55;;;;;;;;;;;;;;;0.22;100.00;102106.09;1879650;74;20267;-39
2020/12/20 11:06:24;;;;;;;;;;;;;;;0.23;100.00;102102.70;1882374;74;20329;-42
2020/12/20 11:08:52;;;;;;;;;;;;;;;0.22;100.00;102105.69;1875108;74;20191;-39
2020/12/20 11:11:19;;;;;;;;;;;;;;;0.22;100.00;102108.27;1884400;74;20192;-40
2020/12/20 11:13:47;;;;;;;;;;;;;;;0.22;100.00;102100.93;1883065;74;20325;-38
2020/12/20 11:16:17;;;;;;;;;;;;;;;0.22;100.00;102109.55;1879501;74;20183;-36
2020/12/20 11:18:46;;;;;;;;;;;;;;;0.24;100.00;102109.63;1880472;74;20265;-42
2020/12/20 11:21:14;;;;;;;;;;;;;;;0.24;100.00;102112.22;1880796;74;20293;-39
2020/12/20 11:23:46;;;;;;;;;;;;;;;0.25;100.00;102115.28;1878044;74;20169;-41
2020/12/20 11:26:20;;;;;;;;;;;;;;;0.28;100.00;102111.53;1846009;75;20212;-40
2020/12/20 11:28:52;;;;;;;;;;;;;;;0.30;100.00;102113.80;1881412;74;20184;-41
2020/12/20 11:31:22;;;;;;;;;;;;;;;0.31;100.00;102116.45;1880915;74;20231;-39
2020/12/20 11:33:50;;;;;;;;;;;;;;;0.33;100.00;102115.20;1881368;74;20295;-40
2020/12/20 11:36:19;;;;;;;;;;;;;;;0.34;100.00;102116.58;1880090;74;20197;-39
2020/12/20 11:38:47;;;;;;;;;;;;;;;0.37;100.00;102121.01;1880311;74;20180;-39
2020/12/20 11:41:15;;;;;;;;;;;;;;;0.39;100.00;102124.12;1884079;74;20176;-40
2020/12/20 11:43:42;;;;;;;;;;;;;;;0.39;100.00;102122.83;1848373;75;20225;-40
2020/12/20 11:46:10;;;;;;;;;;;;;;;0.40;100.00;102123.31;1877495;74;20184;-40
2020/12/20 11:48:43;;;;;;;;;;;;;;;0.43;100.00;102128.15;1875640;74;20219;-41
2020/12/20 11:51:16;;;;;;;;;;;;;;;0.43;100.00;102129.03;1829688;74;20731;-40
2020/12/20 11:53:45;;;;;;;;;;;;;;;0.43;100.00;102132.02;1882777;74;20460;-41
2020/12/20 11:56:15;;;;;;;;;;;;;;;0.42;100.00;102136.30;1878142;74;20171;-41
2020/12/20 11:58:45;;;;;;;;;;;;;;;0.40;100.00;102138.80;1885588;74;20180;-41
2020/12/20 12:01:23;;;;;;;;;;;;;;;0.38;100.00;102136.56;1874949;74;20343;-39
2020/12/20 12:03:50;;;;;;;;;;;;;;;0.33;100.00;102144.88;1878436;75;20303;-41
2020/12/20 12:06:19;;;;;;;;;;;;;;;0.26;100.00;102140.27;1881347;74;20203;-42
2020/12/20 12:08:47;;;;;;;;;;;;;;;0.19;100.00;102143.35;1881495;74;20287;-41
2020/12/20 12:11:19;;;;;;;;;;;;;;;0.16;100.00;102147.95;1879829;74;20220;-40
2020/12/20 12:13:54;;;;;;;;;;;;;;;0.11;100.00;102139.11;1852218;74;20184;-43
2020/12/20 12:16:25;;;;;;;;;;;;;;;0.10;100.00;102146.36;1833676;75;20258;-41
2020/12/20 12:18:57;;;;;;;;;;;;;;;0.07;100.00;102142.73;1825587;74;20223;-38
2020/12/20 12:21:27;;;;;;;;;;;;;;;0.05;100.00;102147.84;1827115;75;20440;-40
2020/12/20 12:23:57;;;;;;;;;;;;;;;0.03;100.00;102145.58;1842890;75;20798;-41
2020/12/20 12:26:27;;;;;;;;;;;;;;;0.04;100.00;102150.33;1881791;74;20172;-41
2020/12/20 12:28:59;;;;;;;;;;;;;;;0.02;100.00;102139.94;1877407;74;20303;-39
2020/12/20 12:31:27;;;;;;;;;;;;;;;0.04;100.00;102147.75;1871315;74;20195;-40
2020/12/20 12:33:55;;;;;;;;;;;;;;;0.03;100.00;102152.42;1879099;74;20264;-39
2020/12/20 12:36:27;;;;;;;;;;;;;;;0.00;100.00;102155.32;1883506;74;20280;-41
2020/12/20 12:38:57;;;;;;;;;;;;;;;-0.02;100.00;102153.50;1881085;74;20260;-41
2020/12/20 12:41:27;;;;;;;;;;;;;;;-0.06;100.00;102150.27;1879098;74;20179;-39
2020/12/20 12:43:55;;;;;;;;;;;;;;;-0.14;100.00;102156.77;1877422;74;20186;-40
2020/12/20 12:46:23;;;;;;;;;;;;;;;-0.30;100.00;102165.41;1878060;74;20195;-42
2020/12/20 12:48:51;;;;;;;;;;;;;;;-0.45;100.00;102174.92;1881791;74;20211;-41
2020/12/20 12:51:24;;;;;;;;;;;;;;;-0.60;100.00;102175.04;1882112;74;20287;-39
2020/12/20 12:53:52;;;;;;;;;;;;;;;-0.75;100.00;102177.20;1873730;74;20570;-40